createdAt,value
2017-10-12T00:00:17.689Z,20.5
2017-10-12T00:01:19.508Z,20.4
2017-10-12T00:02:21.327Z,20.5
2017-10-12T00:03:23.144Z,20.5
2017-10-12T00:04:24.628Z,20.5
2017-10-12T00:05:26.083Z,20.4
2017-10-12T00:06:28.247Z,20.4
2017-10-12T00:07:30.405Z,20.5
2017-10-12T00:08:32.232Z,20.6
2017-10-12T00:09:34.043Z,20.5
2017-10-12T00:10:36.227Z,20.5
2017-10-12T00:11:38.390Z,20.5
2017-10-12T00:12:40.567Z,20.5
2017-10-12T00:13:42.387Z,20.5
2017-10-12T00:14:44.208Z,20.6
2017-10-12T00:15:46.024Z,20.5
2017-10-12T00:16:47.826Z,20.4
2017-10-12T00:17:48.958Z,20.6
2017-10-12T00:18:50.779Z,20.5
2017-10-12T00:19:52.602Z,20.4
2017-10-12T00:20:54.766Z,20.5
2017-10-12T00:21:56.606Z,20.5
2017-10-12T00:22:58.043Z,20.5
2017-10-12T00:23:59.496Z,20.5
2017-10-12T00:25:01.659Z,20.4
2017-10-12T00:26:03.126Z,20.6
2017-10-12T00:27:06.595Z,20.4
2017-10-12T00:28:08.394Z,20.5
2017-10-12T00:29:10.212Z,20.5
2017-10-12T00:30:12.053Z,20.4
2017-10-12T00:31:13.875Z,20.5
2017-10-12T00:32:15.348Z,20.5
2017-10-12T00:33:16.114Z,20.6
2017-10-12T00:34:17.951Z,20.6
2017-10-12T00:35:19.424Z,20.5
2017-10-12T00:36:21.587Z,20.6
2017-10-12T00:37:23.415Z,20.5
2017-10-12T00:38:25.234Z,20.5
2017-10-12T00:39:27.054Z,20.5
2017-10-12T00:40:29.217Z,20.4
2017-10-12T00:41:30.694Z,20.6
2017-10-12T00:42:32.517Z,20.6
2017-10-12T00:43:34.332Z,20.6
2017-10-12T00:44:35.785Z,20.5
2017-10-12T00:45:37.947Z,20.5
2017-10-12T00:46:40.140Z,20.5
2017-10-12T00:47:42.302Z,20.5
2017-10-12T00:48:44.119Z,20.5
2017-10-12T00:49:45.921Z,20.5
2017-10-12T00:50:47.372Z,20.5
2017-10-12T00:51:49.188Z,20.5
2017-10-12T00:52:50.988Z,20.4
2017-10-12T00:53:53.155Z,20.6
2017-10-12T00:54:54.985Z,20.5
2017-10-12T00:55:56.783Z,20.4
2017-10-12T00:56:58.255Z,20.6
2017-10-12T00:58:00.077Z,20.6
2017-10-12T00:59:01.897Z,20.6
2017-10-12T01:00:03.005Z,20.5
2017-10-12T01:01:04.825Z,20.6
2017-10-12T01:02:06.302Z,20.5
2017-10-12T01:03:08.121Z,20.4
2017-10-12T01:04:10.286Z,20.5
2017-10-12T01:05:12.102Z,20.5
2017-10-12T01:06:13.923Z,20.4
2017-10-12T01:07:16.119Z,20.5
2017-10-12T01:08:17.575Z,20.6
2017-10-12T01:09:19.031Z,20.5
2017-10-12T01:10:21.193Z,20.5
2017-10-12T01:11:22.705Z,20.5
2017-10-12T01:12:24.877Z,20.6
2017-10-12T01:13:27.043Z,20.5
2017-10-12T01:14:28.842Z,20.6
2017-10-12T01:15:30.296Z,20.5
2017-10-12T01:16:32.458Z,20.6
2017-10-12T01:17:34.292Z,20.5
2017-10-12T01:18:36.455Z,20.5
2017-10-12T01:19:38.619Z,20.5
2017-10-12T01:20:40.438Z,20.5
2017-10-12T01:21:41.916Z,20.6
2017-10-12T01:22:43.369Z,20.6
2017-10-12T01:23:45.188Z,20.5
2017-10-12T01:24:46.662Z,20.5
2017-10-12T01:25:48.823Z,20.5
2017-10-12T01:26:50.646Z,20.4
2017-10-12T01:27:52.463Z,20.6
2017-10-12T01:28:54.630Z,20.5
2017-10-12T01:29:56.451Z,20.5
2017-10-12T01:30:57.923Z,20.5
2017-10-12T01:31:59.374Z,20.5
2017-10-12T01:33:01.539Z,20.5
2017-10-12T01:34:03.358Z,20.5
2017-10-12T01:35:04.832Z,20.5
2017-10-12T01:36:05.595Z,20.5
2017-10-12T01:37:07.416Z,20.5
2017-10-12T01:38:09.580Z,20.4
2017-10-12T01:39:11.396Z,20.5
2017-10-12T01:40:13.558Z,20.5
2017-10-12T01:41:15.028Z,20.5
2017-10-12T01:42:17.203Z,20.4
2017-10-12T01:43:18.313Z,20.5
2017-10-12T01:44:20.135Z,20.5
2017-10-12T01:45:21.937Z,20.5
2017-10-12T01:46:23.753Z,20.5
2017-10-12T01:47:25.226Z,20.5
2017-10-12T01:48:27.389Z,20.5
2017-10-12T01:49:29.553Z,20.5
2017-10-12T01:50:31.029Z,20.5
2017-10-12T01:51:32.509Z,20.5
2017-10-12T01:52:34.300Z,20.5
2017-10-12T01:53:36.463Z,20.4
2017-10-12T01:54:38.281Z,20.5
2017-10-12T01:55:40.101Z,20.5
2017-10-12T01:56:41.554Z,20.5
2017-10-12T01:57:43.718Z,20.4
2017-10-12T01:58:45.535Z,20.5
2017-10-12T01:59:47.700Z,20.4
2017-10-12T02:00:49.519Z,20.5
2017-10-12T02:01:51.337Z,20.5
2017-10-12T02:02:53.160Z,20.5
2017-10-12T02:03:54.983Z,20.6
2017-10-12T02:04:57.148Z,20.5
2017-10-12T02:05:58.964Z,20.5
2017-10-12T02:07:01.126Z,20.5
2017-10-12T02:08:02.926Z,20.5
2017-10-12T02:09:04.376Z,20.4
2017-10-12T02:10:05.827Z,20.5
2017-10-12T02:11:06.964Z,20.5
2017-10-12T02:12:08.799Z,20.5
2017-10-12T02:13:10.633Z,20.5
2017-10-12T02:14:12.469Z,20.5
2017-10-12T02:15:14.636Z,20.4
2017-10-12T02:16:16.453Z,20.4
2017-10-12T02:17:18.275Z,20.5
2017-10-12T02:18:20.434Z,20.5
2017-10-12T02:19:21.544Z,20.5
2017-10-12T02:20:23.366Z,20.5
2017-10-12T02:21:25.186Z,20.5
2017-10-12T02:22:27.347Z,20.5
2017-10-12T02:23:29.146Z,20.5
2017-10-12T02:24:30.596Z,20.5
2017-10-12T02:25:32.414Z,20.5
2017-10-12T02:26:33.888Z,20.5
2017-10-12T02:27:35.368Z,20.5
2017-10-12T02:28:36.825Z,20.4
2017-10-12T02:29:38.640Z,20.4
2017-10-12T02:30:40.120Z,20.5
2017-10-12T02:31:41.597Z,20.5
2017-10-12T02:32:43.390Z,20.5
2017-10-12T02:33:45.218Z,20.6
2017-10-12T02:34:46.671Z,20.4
2017-10-12T02:35:48.835Z,20.5
2017-10-12T02:36:50.627Z,20.5
2017-10-12T02:37:52.812Z,20.4
2017-10-12T02:38:54.313Z,20.5
2017-10-12T02:39:56.135Z,20.5
2017-10-12T02:40:57.589Z,20.4
2017-10-12T02:41:59.045Z,20.4
2017-10-12T02:43:01.208Z,20.5
2017-10-12T02:44:02.323Z,20.4
2017-10-12T02:45:04.150Z,20.4
2017-10-12T02:46:05.964Z,20.5
2017-10-12T02:47:07.438Z,20.5
2017-10-12T02:48:09.611Z,20.4
2017-10-12T02:49:11.779Z,20.4
2017-10-12T02:50:12.880Z,20.4
2017-10-12T02:51:14.709Z,20.5
2017-10-12T02:52:16.883Z,20.4
2017-10-12T02:53:18.691Z,20.5
2017-10-12T02:54:20.853Z,20.4
2017-10-12T02:55:23.018Z,20.5
2017-10-12T02:56:24.127Z,20.5
2017-10-12T02:57:25.944Z,20.6
2017-10-12T02:58:27.397Z,20.5
2017-10-12T02:59:29.219Z,20.5
2017-10-12T03:00:31.017Z,20.4
2017-10-12T03:01:32.472Z,20.4
2017-10-12T03:02:33.948Z,20.4
2017-10-12T03:03:36.110Z,20.5
2017-10-12T03:04:37.563Z,20.4
2017-10-12T03:05:39.727Z,20.4
2017-10-12T03:06:41.543Z,20.5
2017-10-12T03:07:43.364Z,20.4
2017-10-12T03:08:44.814Z,20.4
2017-10-12T03:09:46.620Z,20.5
2017-10-12T03:10:48.787Z,20.4
2017-10-12T03:11:50.597Z,20.4
2017-10-12T03:12:52.063Z,20.4
2017-10-12T03:13:54.216Z,20.4
2017-10-12T03:14:55.670Z,20.4
2017-10-12T03:15:57.125Z,20.4
2017-10-12T03:16:58.943Z,20.4
2017-10-12T03:18:00.740Z,20.5
2017-10-12T03:19:02.900Z,20.4
2017-10-12T03:20:05.064Z,20.4
2017-10-12T03:21:06.883Z,20.4
2017-10-12T03:22:09.048Z,20.4
2017-10-12T03:23:11.211Z,20.4
2017-10-12T03:24:13.372Z,20.4
2017-10-12T03:25:15.197Z,20.4
2017-10-12T03:26:16.995Z,20.4
2017-10-12T03:27:18.814Z,20.4
2017-10-12T03:28:20.645Z,20.4
2017-10-12T03:29:22.478Z,20.5
2017-10-12T03:30:24.289Z,20.4
2017-10-12T03:31:25.756Z,20.4
2017-10-12T03:32:27.919Z,20.4
2017-10-12T03:33:29.739Z,20.4
2017-10-12T03:34:31.556Z,20.5
2017-10-12T03:35:33.029Z,20.4
2017-10-12T03:36:34.504Z,20.4
2017-10-12T03:37:35.984Z,20.4
2017-10-12T03:38:37.803Z,20.4
2017-10-12T03:39:39.966Z,20.4
2017-10-12T03:40:41.424Z,20.4
2017-10-12T03:41:42.532Z,20.4
2017-10-12T03:42:43.989Z,20.4
2017-10-12T03:43:46.161Z,20.4
2017-10-12T03:44:47.273Z,20.4
2017-10-12T03:45:48.738Z,20.4
2017-10-12T03:46:50.901Z,20.4
2017-10-12T03:47:52.030Z,20.4
2017-10-12T03:48:53.829Z,20.4
2017-10-12T03:49:55.305Z,20.4
2017-10-12T03:50:57.103Z,20.4
2017-10-12T03:51:58.920Z,20.4
2017-10-12T03:53:00.718Z,20.4
2017-10-12T03:54:02.172Z,20.4
2017-10-12T03:55:03.648Z,20.4
2017-10-12T03:56:05.469Z,20.4
2017-10-12T03:57:06.601Z,20.4
2017-10-12T03:58:08.765Z,20.4
2017-10-12T03:59:10.584Z,20.4
2017-10-12T04:00:12.380Z,20.5
2017-10-12T04:01:14.544Z,20.4
2017-10-12T04:02:16.704Z,20.4
2017-10-12T04:03:18.506Z,20.4
2017-10-12T04:04:20.669Z,20.4
2017-10-12T04:05:22.488Z,20.4
2017-10-12T04:06:24.302Z,20.4
2017-10-12T04:07:26.141Z,20.4
2017-10-12T04:08:27.250Z,20.4
2017-10-12T04:09:29.412Z,20.4
2017-10-12T04:10:31.580Z,20.4
2017-10-12T04:11:33.749Z,20.4
2017-10-12T04:12:35.911Z,20.4
2017-10-12T04:13:38.076Z,20.4
2017-10-12T04:14:39.898Z,20.4
2017-10-12T04:15:41.006Z,20.4
2017-10-12T04:16:42.826Z,20.4
2017-10-12T04:17:44.276Z,20.4
2017-10-12T04:18:46.103Z,20.4
2017-10-12T04:19:47.547Z,20.4
2017-10-12T04:20:49.708Z,20.4
2017-10-12T04:21:51.871Z,20.4
2017-10-12T04:22:54.034Z,20.4
2017-10-12T04:23:55.491Z,20.4
2017-10-12T04:24:57.320Z,20.4
2017-10-12T04:25:59.136Z,20.4
2017-10-12T04:27:01.301Z,20.4
2017-10-12T04:28:03.121Z,20.4
2017-10-12T04:29:04.940Z,20.4
2017-10-12T04:30:06.762Z,20.4
2017-10-12T04:31:08.581Z,20.4
2017-10-12T04:32:10.740Z,20.4
2017-10-12T04:33:12.905Z,20.4
2017-10-12T04:34:15.068Z,20.5
2017-10-12T04:35:16.886Z,20.4
2017-10-12T04:36:19.047Z,20.4
2017-10-12T04:37:20.851Z,20.4
2017-10-12T04:38:22.669Z,20.4
2017-10-12T04:39:24.473Z,20.3
2017-10-12T04:40:26.643Z,20.4
2017-10-12T04:41:28.463Z,20.4
2017-10-12T04:42:29.938Z,20.4
2017-10-12T04:43:31.777Z,20.4
2017-10-12T04:44:33.234Z,20.4
2017-10-12T04:45:34.342Z,20.4
2017-10-12T04:46:36.509Z,20.3
2017-10-12T04:47:38.329Z,20.4
2017-10-12T04:48:40.492Z,20.3
2017-10-12T04:49:42.306Z,20.4
2017-10-12T04:50:44.147Z,20.4
2017-10-12T04:51:46.311Z,20.4
2017-10-12T04:52:48.107Z,20.4
2017-10-12T04:53:49.928Z,20.4
2017-10-12T04:54:52.093Z,20.4
2017-10-12T04:55:53.907Z,20.4
2017-10-12T04:56:55.382Z,20.4
2017-10-12T04:57:56.837Z,20.4
2017-10-12T04:58:58.727Z,20.4
2017-10-12T05:00:00.891Z,20.4
2017-10-12T05:01:02.002Z,20.4
2017-10-12T05:02:03.458Z,20.4
2017-10-12T05:03:04.932Z,20.4
2017-10-12T05:04:07.095Z,20.4
2017-10-12T05:05:08.569Z,20.4
2017-10-12T05:06:10.024Z,20.4
2017-10-12T05:07:11.826Z,20.4
2017-10-12T05:08:13.986Z,20.4
2017-10-12T05:09:16.152Z,20.4
2017-10-12T05:10:17.950Z,20.4
2017-10-12T05:11:19.405Z,20.4
2017-10-12T05:12:21.223Z,20.4
2017-10-12T05:13:23.388Z,20.4
2017-10-12T05:14:24.863Z,20.4
2017-10-12T05:15:27.025Z,20.4
2017-10-12T05:16:28.502Z,20.4
2017-10-12T05:17:30.319Z,20.4
2017-10-12T05:18:31.775Z,20.4
2017-10-12T05:19:33.571Z,20.4
2017-10-12T05:20:35.050Z,20.4
2017-10-12T05:21:37.211Z,20.4
2017-10-12T05:22:39.034Z,20.4
2017-10-12T05:23:40.165Z,20.4
2017-10-12T05:24:41.988Z,20.4
2017-10-12T05:25:43.805Z,20.4
2017-10-12T05:26:45.971Z,20.4
2017-10-12T05:27:48.135Z,20.3
2017-10-12T05:28:49.589Z,20.4
2017-10-12T05:29:51.756Z,20.4
2017-10-12T05:30:53.554Z,20.3
2017-10-12T05:31:55.376Z,20.4
2017-10-12T05:32:57.540Z,20.4
2017-10-12T05:33:59.361Z,20.4
2017-10-12T05:35:00.812Z,20.4
2017-10-12T05:36:02.976Z,20.4
2017-10-12T05:37:04.454Z,20.4
2017-10-12T05:38:05.904Z,20.4
2017-10-12T05:39:07.375Z,20.4
2017-10-12T05:40:08.831Z,20.4
2017-10-12T05:41:10.652Z,20.4
2017-10-12T05:42:12.474Z,20.4
2017-10-12T05:43:14.640Z,20.4
2017-10-12T05:44:16.807Z,20.4
2017-10-12T05:45:18.256Z,20.4
2017-10-12T05:46:19.717Z,20.4
2017-10-12T05:47:21.191Z,20.4
2017-10-12T05:48:23.010Z,20.4
2017-10-12T05:49:24.487Z,20.4
2017-10-12T05:50:26.328Z,20.4
2017-10-12T05:51:28.150Z,20.4
2017-10-12T05:52:29.599Z,20.4
2017-10-12T05:53:31.763Z,20.4
2017-10-12T05:54:33.563Z,20.5
2017-10-12T05:55:34.675Z,20.5
2017-10-12T05:56:36.840Z,20.5
2017-10-12T05:57:38.662Z,20.4
2017-10-12T05:58:40.826Z,20.5
2017-10-12T05:59:42.657Z,20.4
2017-10-12T06:00:44.820Z,20.4
2017-10-12T06:01:46.985Z,20.4
2017-10-12T06:02:48.441Z,20.5
2017-10-12T06:03:50.601Z,20.5
2017-10-12T06:04:52.477Z,20.5
2017-10-12T06:05:54.298Z,20.6
2017-10-12T06:06:55.768Z,20.5
2017-10-12T06:07:57.933Z,20.5
2017-10-12T06:08:59.411Z,20.4
2017-10-12T06:10:01.277Z,20.5
2017-10-12T06:11:03.097Z,20.4
2017-10-12T06:12:03.868Z,20.5
2017-10-12T06:13:04.980Z,20.5
2017-10-12T06:14:06.796Z,20.5
2017-10-12T06:15:08.267Z,20.5
2017-10-12T06:16:10.092Z,20.5
2017-10-12T06:17:11.553Z,20.6
2017-10-12T06:18:13.394Z,20.5
2017-10-12T06:19:15.214Z,20.5
2017-10-12T06:20:17.033Z,20.6
2017-10-12T06:21:18.849Z,20.5
2017-10-12T06:22:20.671Z,20.5
2017-10-12T06:23:22.126Z,20.5
2017-10-12T06:24:23.604Z,20.5
2017-10-12T06:25:25.769Z,20.5
2017-10-12T06:26:27.569Z,20.5
2017-10-12T06:27:29.051Z,20.6
2017-10-12T06:28:30.867Z,20.4
2017-10-12T06:29:32.322Z,20.5
2017-10-12T06:30:34.146Z,20.5
2017-10-12T06:31:35.622Z,20.5
2017-10-12T06:32:37.448Z,20.4
2017-10-12T06:33:39.616Z,20.5
2017-10-12T06:34:41.435Z,20.5
2017-10-12T06:35:42.912Z,20.5
2017-10-12T06:36:45.076Z,20.5
2017-10-12T06:37:46.896Z,20.6
2017-10-12T06:38:49.058Z,20.5
2017-10-12T06:39:51.224Z,20.5
2017-10-12T06:40:53.386Z,20.5
2017-10-12T06:41:55.553Z,20.5
2017-10-12T06:42:57.026Z,20.6
2017-10-12T06:43:58.505Z,20.5
2017-10-12T06:45:00.326Z,20.5
2017-10-12T06:46:02.123Z,20.6
2017-10-12T06:47:03.599Z,20.5
2017-10-12T06:48:04.714Z,20.5
2017-10-12T06:49:06.189Z,20.6
2017-10-12T06:50:08.351Z,20.6
2017-10-12T06:51:10.175Z,20.6
2017-10-12T06:52:11.991Z,20.6
2017-10-12T06:53:13.124Z,20.6
2017-10-12T06:54:14.586Z,20.6
2017-10-12T06:55:16.409Z,20.6
2017-10-12T06:56:18.223Z,20.6
2017-10-12T06:57:20.049Z,20.7
2017-10-12T06:58:22.230Z,20.6
2017-10-12T06:59:23.686Z,20.6
2017-10-12T07:00:25.165Z,20.6
2017-10-12T07:01:26.628Z,20.6
2017-10-12T07:02:28.418Z,20.5
2017-10-12T07:03:30.241Z,20.6
2017-10-12T07:04:31.353Z,20.6
2017-10-12T07:05:33.512Z,20.6
2017-10-12T07:06:35.676Z,20.5
2017-10-12T07:07:37.474Z,20.6
2017-10-12T07:08:39.296Z,20.6
2017-10-12T07:09:41.460Z,20.6
2017-10-12T07:10:42.935Z,20.6
2017-10-12T07:11:44.738Z,20.6
2017-10-12T07:12:46.214Z,20.6
2017-10-12T07:13:46.987Z,20.6
2017-10-12T07:14:48.811Z,20.6
2017-10-12T07:15:50.975Z,20.7
2017-10-12T07:16:52.449Z,20.6
2017-10-12T07:17:54.618Z,20.7
2017-10-12T07:18:56.435Z,20.7
2017-10-12T07:19:58.603Z,20.7
2017-10-12T07:21:00.423Z,20.6
2017-10-12T07:22:02.246Z,20.7
2017-10-12T07:23:03.702Z,20.7
2017-10-12T07:24:05.155Z,20.6
2017-10-12T07:25:06.954Z,20.7
2017-10-12T07:26:08.409Z,20.6
2017-10-12T07:27:09.884Z,20.6
2017-10-12T07:28:11.681Z,20.7
2017-10-12T07:29:13.871Z,20.7
2017-10-12T07:30:16.039Z,20.6
2017-10-12T07:31:17.516Z,20.7
2017-10-12T07:32:19.027Z,20.7
2017-10-12T07:33:20.843Z,20.6
2017-10-12T07:34:23.021Z,20.7
2017-10-12T07:35:24.838Z,20.6
2017-10-12T07:36:27.007Z,20.6
2017-10-12T07:37:28.480Z,20.7
2017-10-12T07:38:30.643Z,20.6
2017-10-12T07:39:31.777Z,20.6
2017-10-12T07:40:33.233Z,20.7
2017-10-12T07:41:34.690Z,20.8
2017-10-12T07:42:36.855Z,20.7
2017-10-12T07:43:37.618Z,20.7
2017-10-12T07:44:39.072Z,20.7
2017-10-12T07:45:40.527Z,20.7
2017-10-12T07:46:42.329Z,20.8
2017-10-12T07:47:44.196Z,20.7
2017-10-12T07:48:46.363Z,20.7
2017-10-12T07:49:48.181Z,20.7
2017-10-12T07:50:49.647Z,20.7
2017-10-12T07:51:51.804Z,20.8
2017-10-12T07:52:53.283Z,20.8
2017-10-12T07:53:54.742Z,20.8
2017-10-12T07:54:56.217Z,20.8
2017-10-12T07:55:57.693Z,20.7
2017-10-12T07:56:59.149Z,20.8
2017-10-12T07:58:00.709Z,20.8
2017-10-12T07:59:02.519Z,20.8
2017-10-12T08:00:04.316Z,20.8
2017-10-12T08:01:05.795Z,20.8
2017-10-12T08:02:07.961Z,20.8
2017-10-12T08:03:09.832Z,20.8
2017-10-12T08:04:11.994Z,20.8
2017-10-12T08:05:13.794Z,20.8
2017-10-12T08:06:15.250Z,20.7
2017-10-12T08:07:17.071Z,20.8
2017-10-12T08:08:18.599Z,20.8
2017-10-12T08:09:20.078Z,20.8
2017-10-12T08:10:21.549Z,20.8
2017-10-12T08:11:23.137Z,20.8
2017-10-12T08:12:24.049Z,20.8
2017-10-12T08:13:26.515Z,20.8
2017-10-12T08:14:28.887Z,20.8
2017-10-12T08:15:30.820Z,20.8
2017-10-12T08:16:32.728Z,20.9
2017-10-12T08:17:34.583Z,20.8
2017-10-12T08:18:36.585Z,20.8
2017-10-12T08:19:38.527Z,20.8
2017-10-12T08:20:40.131Z,20.9
2017-10-12T08:21:42.018Z,20.9
2017-10-12T08:22:43.915Z,20.9
2017-10-12T08:23:46.258Z,20.8
2017-10-12T08:24:48.504Z,20.8
2017-10-12T08:25:50.432Z,20.8
2017-10-12T08:26:52.064Z,20.9
2017-10-12T08:27:53.703Z,20.9
2017-10-12T08:28:55.330Z,20.8
2017-10-12T08:29:57.241Z,20.9
2017-10-12T08:30:59.126Z,20.9
2017-10-12T08:32:01.132Z,20.8
2017-10-12T08:33:02.312Z,20.9
2017-10-12T08:34:04.639Z,20.9
2017-10-12T08:35:06.618Z,20.9
2017-10-12T08:36:08.877Z,20.9
2017-10-12T08:37:11.110Z,20.9
2017-10-12T08:38:13.520Z,20.9
2017-10-12T08:39:15.892Z,20.9
2017-10-12T08:40:17.559Z,20.9
2017-10-12T08:41:19.483Z,21
2017-10-12T08:42:21.413Z,21
2017-10-12T08:43:22.945Z,20.9
2017-10-12T08:44:24.964Z,21
2017-10-12T08:45:26.507Z,20.9
2017-10-12T08:46:28.463Z,21
2017-10-12T08:47:30.349Z,20.9
2017-10-12T08:48:31.492Z,21
2017-10-12T08:49:32.841Z,21
2017-10-12T08:50:34.539Z,20.9
2017-10-12T08:51:36.743Z,20.9
2017-10-12T08:52:38.707Z,21
2017-10-12T08:53:40.963Z,21
2017-10-12T08:54:43.315Z,21
2017-10-12T08:55:45.190Z,21
2017-10-12T08:56:46.712Z,20.9
2017-10-12T08:57:48.537Z,21
2017-10-12T08:58:50.337Z,21
2017-10-12T08:59:52.502Z,21
2017-10-12T09:00:54.666Z,21
2017-10-12T09:01:56.124Z,21
2017-10-12T09:02:58.297Z,21
2017-10-12T09:04:00.111Z,21
2017-10-12T09:05:02.278Z,21
2017-10-12T09:06:03.391Z,21
2017-10-12T09:07:04.870Z,21
2017-10-12T09:08:06.673Z,21
2017-10-12T09:09:08.839Z,21.1
2017-10-12T09:10:09.951Z,21.1
2017-10-12T09:11:11.407Z,21.1
2017-10-12T09:12:13.575Z,21.1
2017-10-12T09:13:15.400Z,21.1
2017-10-12T09:14:17.570Z,21
2017-10-12T09:15:18.703Z,21
2017-10-12T09:16:20.162Z,21.1
2017-10-12T09:17:21.274Z,21.1
2017-10-12T09:18:23.075Z,21.1
2017-10-12T09:19:24.563Z,21.1
2017-10-12T09:20:26.373Z,21.1
2017-10-12T09:21:28.538Z,21.1
2017-10-12T09:22:30.361Z,21.1
2017-10-12T09:23:32.157Z,21.1
2017-10-12T09:24:33.615Z,21.1
2017-10-12T09:25:34.727Z,21.2
2017-10-12T09:26:36.546Z,21.1
2017-10-12T09:27:38.729Z,21.2
2017-10-12T09:28:40.907Z,21.1
2017-10-12T09:29:43.074Z,21.1
2017-10-12T09:30:44.544Z,21.2
2017-10-12T09:31:46.024Z,21.1
2017-10-12T09:32:47.859Z,21
2017-10-12T09:33:49.686Z,21.1
2017-10-12T09:34:50.820Z,21.1
2017-10-12T09:35:52.983Z,21.1
2017-10-12T09:36:54.806Z,21.1
2017-10-12T09:37:56.628Z,21
2017-10-12T09:38:58.426Z,21.1
2017-10-12T09:40:00.252Z,21.1
2017-10-12T09:41:01.734Z,21.1
2017-10-12T09:42:03.178Z,21.2
2017-10-12T09:43:05.000Z,21.1
2017-10-12T09:44:06.457Z,21.2
2017-10-12T09:45:08.328Z,21.2
2017-10-12T09:46:10.499Z,21.1
2017-10-12T09:47:12.665Z,21.2
2017-10-12T09:48:14.465Z,21.1
2017-10-12T09:49:16.289Z,21.1
2017-10-12T09:50:17.767Z,21.1
2017-10-12T09:51:19.604Z,21
2017-10-12T09:52:20.699Z,21
2017-10-12T09:53:22.526Z,21
2017-10-12T09:54:24.370Z,21.1
2017-10-12T09:55:26.170Z,21.1
2017-10-12T09:56:27.994Z,21
2017-10-12T09:57:29.816Z,21
2017-10-12T09:58:31.637Z,21
2017-10-12T09:59:33.803Z,21.1
2017-10-12T10:00:35.968Z,21.1
2017-10-12T10:01:37.774Z,21.1
2017-10-12T10:02:39.251Z,21.1
2017-10-12T10:03:40.364Z,21.1
2017-10-12T10:04:41.129Z,21.2
2017-10-12T10:05:42.951Z,21.2
2017-10-12T10:06:44.406Z,21.1
2017-10-12T10:07:46.211Z,21.1
2017-10-12T10:08:47.317Z,21.2
2017-10-12T10:09:49.484Z,21.1
2017-10-12T10:10:51.285Z,21.1
2017-10-12T10:11:53.094Z,21.1
2017-10-12T10:12:54.907Z,21.1
2017-10-12T10:13:56.730Z,21.1
2017-10-12T10:14:58.897Z,21.1
2017-10-12T10:16:00.719Z,21.2
2017-10-12T10:17:01.831Z,21.1
2017-10-12T10:18:03.307Z,21.2
2017-10-12T10:19:04.788Z,21.2
2017-10-12T10:20:06.593Z,21.2
2017-10-12T10:21:08.107Z,21.2
2017-10-12T10:22:09.927Z,21.2
2017-10-12T10:23:11.755Z,21.2
2017-10-12T10:24:13.229Z,21.2
2017-10-12T10:25:15.399Z,21.3
2017-10-12T10:26:17.222Z,21.3
2017-10-12T10:27:18.345Z,21.2
2017-10-12T10:28:19.455Z,21.2
2017-10-12T10:29:21.618Z,21.2
2017-10-12T10:30:23.440Z,21.1
2017-10-12T10:31:25.268Z,21.2
2017-10-12T10:32:27.061Z,21.3
2017-10-12T10:33:28.519Z,21.3
2017-10-12T10:34:30.353Z,21.2
2017-10-12T10:35:32.172Z,21.2
2017-10-12T10:36:33.997Z,21.2
2017-10-12T10:37:35.821Z,21.3
2017-10-12T10:38:37.985Z,21.3
2017-10-12T10:39:39.808Z,21.3
2017-10-12T10:40:41.628Z,21.2
2017-10-12T10:41:43.108Z,21.2
2017-10-12T10:42:44.931Z,21.2
2017-10-12T10:43:46.728Z,21.2
2017-10-12T10:44:48.897Z,21.2
2017-10-12T10:45:50.359Z,21.3
2017-10-12T10:46:52.232Z,21.2
2017-10-12T10:47:54.052Z,21.3
2017-10-12T10:48:56.222Z,21.3
2017-10-12T10:49:58.017Z,21.3
2017-10-12T10:50:59.822Z,21.3
2017-10-12T10:52:01.642Z,21.2
2017-10-12T10:53:03.810Z,21.3
2017-10-12T10:54:05.265Z,21.3
2017-10-12T10:55:06.738Z,21.3
2017-10-12T10:56:08.558Z,21.3
2017-10-12T10:57:10.010Z,21.3
2017-10-12T10:58:11.468Z,21.4
2017-10-12T10:59:13.291Z,21.3
2017-10-12T11:00:15.467Z,21.3
2017-10-12T11:01:17.624Z,21.4
2017-10-12T11:02:18.739Z,21.3
2017-10-12T11:03:20.566Z,21.3
2017-10-12T11:04:22.024Z,21.3
2017-10-12T11:05:23.824Z,21.3
2017-10-12T11:06:25.990Z,21.4
2017-10-12T11:07:28.156Z,21.3
2017-10-12T11:08:30.321Z,21.3
2017-10-12T11:09:32.137Z,21.3
2017-10-12T11:10:34.305Z,21.3
2017-10-12T11:11:36.126Z,21.4
2017-10-12T11:12:37.955Z,21.4
2017-10-12T11:13:39.775Z,21.3
2017-10-12T11:14:41.231Z,21.3
2017-10-12T11:15:42.690Z,21.3
2017-10-12T11:16:43.804Z,21.3
2017-10-12T11:17:45.627Z,21.4
2017-10-12T11:18:47.083Z,21.4
2017-10-12T11:19:48.571Z,21.4
2017-10-12T11:20:50.734Z,21.3
2017-10-12T11:21:52.540Z,21.4
2017-10-12T11:22:54.340Z,21.4
2017-10-12T11:23:56.162Z,21.4
2017-10-12T11:24:57.279Z,21.4
2017-10-12T11:25:59.444Z,21.4
2017-10-12T11:27:00.921Z,21.5
2017-10-12T11:28:02.742Z,21.5
2017-10-12T11:29:04.541Z,21.4
2017-10-12T11:30:06.710Z,21.4
2017-10-12T11:31:08.505Z,21.4
2017-10-12T11:32:09.616Z,21.4
2017-10-12T11:33:11.437Z,21.4
2017-10-12T11:34:12.905Z,21.4
2017-10-12T11:35:14.392Z,21.4
2017-10-12T11:36:16.204Z,21.4
2017-10-12T11:37:17.661Z,21.4
2017-10-12T11:38:19.482Z,21.4
2017-10-12T11:39:21.649Z,21.4
2017-10-12T11:40:23.472Z,21.4
2017-10-12T11:41:25.295Z,21.5
2017-10-12T11:42:27.459Z,21.4
2017-10-12T11:43:29.623Z,21.4
2017-10-12T11:44:31.084Z,21.4
2017-10-12T11:45:33.252Z,21.4
2017-10-12T11:46:34.709Z,21.4
2017-10-12T11:47:36.528Z,21.4
2017-10-12T11:48:38.694Z,21.4
2017-10-12T11:49:40.518Z,21.4
2017-10-12T11:50:42.340Z,21.4
2017-10-12T11:51:43.791Z,21.4
2017-10-12T11:59:39.336Z,21.5
2017-10-12T12:00:41.152Z,21.4
2017-10-12T12:01:42.608Z,21.4
2017-10-12T12:02:44.773Z,21.4
2017-10-12T12:03:46.593Z,21.4
2017-10-12T12:04:48.066Z,21.4
2017-10-12T12:05:50.234Z,21.4
2017-10-12T12:06:52.392Z,21.5
2017-10-12T12:07:54.215Z,21.4
2017-10-12T12:08:56.084Z,21.4
2017-10-12T12:09:58.254Z,21.5
2017-10-12T12:11:00.060Z,21.4
2017-10-12T12:12:01.880Z,21.5
2017-10-12T12:13:03.690Z,21.5
2017-10-12T12:14:05.487Z,21.5
2017-10-12T12:15:07.307Z,21.5
2017-10-12T12:16:09.124Z,21.4
2017-10-12T12:17:11.290Z,21.5
2017-10-12T12:18:13.115Z,21.5
2017-10-12T12:19:14.243Z,21.5
2017-10-12T12:20:16.410Z,21.5
2017-10-12T12:21:18.579Z,21.4
2017-10-12T12:22:20.403Z,21.5
2017-10-12T12:23:22.227Z,21.5
2017-10-12T12:24:23.683Z,21.5
2017-10-12T12:25:25.504Z,21.4
2017-10-12T12:26:27.666Z,21.5
2017-10-12T12:27:29.128Z,21.5
2017-10-12T12:28:30.950Z,21.6
2017-10-12T12:29:32.775Z,21.5
2017-10-12T12:30:34.945Z,21.4
2017-10-12T12:31:36.421Z,21.5
2017-10-12T12:32:37.873Z,21.6
2017-10-12T12:33:39.697Z,21.5
2017-10-12T12:34:41.206Z,21.6
2017-10-12T12:35:43.371Z,21.5
2017-10-12T12:36:45.191Z,21.5
2017-10-12T12:37:46.666Z,21.6
2017-10-12T12:38:48.121Z,21.6
2017-10-12T12:39:49.949Z,21.5
2017-10-12T12:40:51.769Z,21.5
2017-10-12T12:41:53.226Z,21.5
2017-10-12T12:42:54.335Z,21.6
2017-10-12T12:43:56.154Z,21.5
2017-10-12T12:44:58.320Z,21.5
2017-10-12T12:46:00.488Z,21.6
2017-10-12T12:47:01.947Z,21.6
2017-10-12T12:48:03.768Z,21.5
2017-10-12T12:49:05.229Z,21.6
2017-10-12T12:50:07.048Z,21.6
2017-10-12T12:51:09.211Z,21.6
2017-10-12T12:52:11.014Z,21.5
2017-10-12T12:53:13.184Z,21.5
2017-10-12T12:54:15.351Z,21.6
2017-10-12T12:55:16.932Z,21.6
2017-10-12T12:56:19.095Z,21.6
2017-10-12T12:57:21.260Z,21.6
2017-10-12T12:58:22.389Z,21.6
2017-10-12T12:59:24.563Z,21.5
2017-10-12T13:00:25.675Z,21.6
2017-10-12T13:01:27.152Z,21.6
2017-10-12T13:02:28.645Z,21.6
2017-10-12T13:03:30.802Z,21.6
2017-10-12T13:04:32.622Z,21.6
2017-10-12T13:05:34.451Z,21.6
2017-10-12T13:06:36.289Z,21.6
2017-10-12T13:07:38.456Z,21.6
2017-10-12T13:08:39.569Z,21.6
2017-10-12T13:09:41.052Z,21.6
2017-10-12T13:10:42.527Z,21.6
2017-10-12T13:11:44.012Z,21.6
2017-10-12T13:12:46.176Z,21.6
2017-10-12T13:13:47.973Z,21.6
2017-10-12T13:14:49.084Z,21.5
2017-10-12T13:15:50.933Z,21.6
2017-10-12T13:16:52.758Z,21.6
2017-10-12T13:17:54.235Z,21.6
2017-10-12T13:18:56.402Z,21.6
2017-10-12T13:19:58.228Z,21.6
2017-10-12T13:21:00.054Z,21.6
2017-10-12T13:22:01.902Z,21.6
2017-10-12T13:23:03.724Z,21.5
2017-10-12T13:24:05.183Z,21.5
2017-10-12T13:25:07.004Z,21.6
2017-10-12T13:26:08.835Z,21.6
2017-10-12T13:27:10.654Z,21.6
2017-10-12T13:28:12.476Z,21.6
2017-10-12T13:29:13.932Z,21.5
2017-10-12T13:30:15.418Z,21.6
2017-10-12T13:31:17.235Z,21.5
2017-10-12T13:32:19.038Z,21.6
2017-10-12T13:33:20.514Z,21.6
2017-10-12T13:34:22.335Z,21.5
2017-10-12T13:35:23.789Z,21.6
2017-10-12T13:36:24.897Z,21.6
2017-10-12T13:37:26.378Z,21.6
2017-10-12T13:38:27.495Z,21.6
2017-10-12T13:39:28.603Z,21.6
2017-10-12T13:40:30.422Z,21.6
2017-10-12T13:41:31.556Z,21.6
2017-10-12T13:42:33.719Z,21.6
2017-10-12T13:43:35.176Z,21.6
2017-10-12T13:44:36.999Z,21.6
2017-10-12T13:45:38.455Z,21.6
2017-10-12T13:46:39.929Z,21.6
2017-10-12T13:47:41.750Z,21.6
2017-10-12T13:48:43.225Z,21.6
2017-10-12T13:49:45.050Z,21.6
2017-10-12T13:50:46.525Z,21.6